Terminal Aerodrome Forecast
Issued by NWS

Home | Current Version | Previous Version | Text Only | Print | Product List | Glossary Off
Versions: 1 2 3 4 5 6 7 8 9 10 11 12 13

300
FTUS43 KIWX 241120
TAFSBN
TAF
KSBN 241120Z 2412/2512 31006KT P6SM SCT250
     FM241600 29012G22KT P6SM BKN050
     FM250000 28007KT P6SM SCT250=

USA.gov is the U.S. government's official web portal to all federal, state and local government web resources and services.